Terminal Aerodrome Forecast
Issued by NWS

Home | Current Version | Previous Version | Text Only | Print | Product List | Glossary On
Versions: 1 2 3 4 5 6 7 8 9 10 11 12 13 14 15 16 17 18 19 20 21 22 23 24 25 26
000
FTUS43 KDMX 201136
TAFMCW
TAF
KMCW 201136Z 2012/2112 14011KT P6SM SCT080 OVC150
     FM201300 15011KT P6SM SHRA SCT015 BKN035 OVC070
      TEMPO 2013/2016 3SM TSRA BKN015CB
     FM201700 16014KT 5SM BR VCSH SCT006 OVC012
     FM202300 20010KT P6SM VCSH SCT015 BKN022
     FM210400 29010KT P6SM SCT060=

USA.gov is the U.S. government's official web portal to all federal, state and local government web resources and services.